sensor_id;sensor_type;location;lat;lon;timestamp;P1;durP1;ratioP1;P2;durP2;ratioP2
49860;SDS011;35761;48.826;9.238;2024-01-07T00:01:13;30.27;;;20.35;;
49860;SDS011;35761;48.826;9.238;2024-01-07T00:03:40;29.27;;;19.63;;
49860;SDS011;35761;48.826;9.238;2024-01-07T00:06:06;32.28;;;19.27;;
49860;SDS011;35761;48.826;9.238;2024-01-07T00:08:31;26.27;;;18.90;;
49860;SDS011;35761;48.826;9.238;2024-01-07T00:10:57;27.08;;;18.50;;
49860;SDS011;35761;48.826;9.238;2024-01-07T00:13:22;25.25;;;17.60;;
49860;SDS011;35761;48.826;9.238;2024-01-07T00:15:48;25.92;;;18.35;;
49860;SDS011;35761;48.826;9.238;2024-01-07T00:18:13;28.48;;;18.45;;
49860;SDS011;35761;48.826;9.238;2024-01-07T00:20:39;24.10;;;17.15;;
49860;SDS011;35761;48.826;9.238;2024-01-07T00:23:04;25.13;;;17.17;;
49860;SDS011;35761;48.826;9.238;2024-01-07T00:25:29;23.98;;;16.90;;
49860;SDS011;35761;48.826;9.238;2024-01-07T00:27:55;29.42;;;17.60;;
49860;SDS011;35761;48.826;9.238;2024-01-07T00:30:20;25.83;;;16.75;;
49860;SDS011;35761;48.826;9.238;2024-01-07T00:32:46;24.75;;;16.65;;
49860;SDS011;35761;48.826;9.238;2024-01-07T00:35:12;25.27;;;17.40;;
49860;SDS011;35761;48.826;9.238;2024-01-07T00:37:37;37.28;;;28.25;;
49860;SDS011;35761;48.826;9.238;2024-01-07T00:40:03;25.65;;;19.92;;
49860;SDS011;35761;48.826;9.238;2024-01-07T00:42:30;25.38;;;18.05;;
49860;SDS011;35761;48.826;9.238;2024-01-07T00:44:55;23.05;;;16.08;;
49860;SDS011;35761;48.826;9.238;2024-01-07T00:47:21;30.75;;;18.05;;
49860;SDS011;35761;48.826;9.238;2024-01-07T00:49:46;24.65;;;16.05;;
49860;SDS011;35761;48.826;9.238;2024-01-07T00:52:12;23.77;;;16.42;;
49860;SDS011;35761;48.826;9.238;2024-01-07T00:54:38;23.85;;;16.35;;
49860;SDS011;35761;48.826;9.238;2024-01-07T00:57:04;24.48;;;16.00;;
49860;SDS011;35761;48.826;9.238;2024-01-07T00:59:29;23.88;;;15.88;;
49860;SDS011;35761;48.826;9.238;2024-01-07T01:01:55;22.95;;;16.20;;
49860;SDS011;35761;48.826;9.238;2024-01-07T01:04:20;24.25;;;16.75;;
49860;SDS011;35761;48.826;9.238;2024-01-07T01:06:46;32.05;;;22.63;;
49860;SDS011;35761;48.826;9.238;2024-01-07T01:09:12;31.35;;;19.85;;
49860;SDS011;35761;48.826;9.238;2024-01-07T01:11:38;23.23;;;15.35;;
49860;SDS011;35761;48.826;9.238;2024-01-07T01:14:03;23.75;;;16.15;;
49860;SDS011;35761;48.826;9.238;2024-01-07T01:16:29;22.73;;;16.13;;
49860;SDS011;35761;48.826;9.238;2024-01-07T01:18:54;25.67;;;16.35;;
49860;SDS011;35761;48.826;9.238;2024-01-07T01:21:20;23.63;;;15.43;;
49860;SDS011;35761;48.826;9.238;2024-01-07T01:23:46;22.60;;;16.58;;
49860;SDS011;35761;48.826;9.238;2024-01-07T01:26:11;21.70;;;14.70;;
49860;SDS011;35761;48.826;9.238;2024-01-07T01:28:37;21.65;;;15.85;;
49860;SDS011;35761;48.826;9.238;2024-01-07T01:31:03;25.48;;;16.25;;
49860;SDS011;35761;48.826;9.238;2024-01-07T01:33:28;24.35;;;16.90;;
49860;SDS011;35761;48.826;9.238;2024-01-07T01:35:54;23.58;;;15.77;;
49860;SDS011;35761;48.826;9.238;2024-01-07T01:38:19;23.85;;;16.38;;
49860;SDS011;35761;48.826;9.238;2024-01-07T01:40:51;23.58;;;17.05;;
49860;SDS011;35761;48.826;9.238;2024-01-07T01:43:35;27.17;;;17.15;;
49860;SDS011;35761;48.826;9.238;2024-01-07T01:46:01;22.98;;;16.05;;
49860;SDS011;35761;48.826;9.238;2024-01-07T01:48:27;27.38;;;18.15;;
49860;SDS011;35761;48.826;9.238;2024-01-07T01:50:53;25.25;;;16.35;;
49860;SDS011;35761;48.826;9.238;2024-01-07T01:53:19;28.83;;;17.80;;
49860;SDS011;35761;48.826;9.238;2024-01-07T01:55:44;29.95;;;18.65;;
49860;SDS011;35761;48.826;9.238;2024-01-07T01:58:10;26.58;;;17.83;;
49860;SDS011;35761;48.826;9.238;2024-01-07T02:00:38;26.83;;;17.63;;
49860;SDS011;35761;48.826;9.238;2024-01-07T02:03:04;31.35;;;19.00;;
49860;SDS011;35761;48.826;9.238;2024-01-07T02:05:29;29.63;;;19.05;;
49860;SDS011;35761;48.826;9.238;2024-01-07T02:07:55;27.48;;;18.95;;
49860;SDS011;35761;48.826;9.238;2024-01-07T02:10:21;30.83;;;19.35;;
49860;SDS011;35761;48.826;9.238;2024-01-07T02:12:47;31.60;;;20.08;;
49860;SDS011;35761;48.826;9.238;2024-01-07T02:15:13;31.88;;;19.27;;
49860;SDS011;35761;48.826;9.238;2024-01-07T02:17:39;34.70;;;19.98;;
49860;SDS011;35761;48.826;9.238;2024-01-07T02:20:05;30.27;;;20.42;;
49860;SDS011;35761;48.826;9.238;2024-01-07T02:22:30;50.83;;;29.95;;
49860;SDS011;35761;48.826;9.238;2024-01-07T02:24:56;30.40;;;20.10;;
49860;SDS011;35761;48.826;9.238;2024-01-07T02:27:21;31.83;;;19.40;;
49860;SDS011;35761;48.826;9.238;2024-01-07T02:29:47;28.65;;;19.02;;
49860;SDS011;35761;48.826;9.238;2024-01-07T02:32:12;29.40;;;18.17;;
49860;SDS011;35761;48.826;9.238;2024-01-07T02:34:38;27.52;;;17.25;;
49860;SDS011;35761;48.826;9.238;2024-01-07T02:37:03;29.73;;;18.30;;
49860;SDS011;35761;48.826;9.238;2024-01-07T02:39:29;27.55;;;18.85;;
49860;SDS011;35761;48.826;9.238;2024-01-07T02:41:54;30.30;;;18.55;;
49860;SDS011;35761;48.826;9.238;2024-01-07T02:44:20;28.35;;;19.52;;
49860;SDS011;35761;48.826;9.238;2024-01-07T02:46:45;28.58;;;18.63;;
49860;SDS011;35761;48.826;9.238;2024-01-07T02:49:11;26.30;;;17.50;;
49860;SDS011;35761;48.826;9.238;2024-01-07T02:51:38;29.52;;;17.05;;
49860;SDS011;35761;48.826;9.238;2024-01-07T02:54:03;32.22;;;19.40;;
49860;SDS011;35761;48.826;9.238;2024-01-07T02:56:29;27.80;;;18.00;;
49860;SDS011;35761;48.826;9.238;2024-01-07T02:58:54;26.42;;;18.08;;
49860;SDS011;35761;48.826;9.238;2024-01-07T03:01:24;30.95;;;17.95;;
49860;SDS011;35761;48.826;9.238;2024-01-07T03:03:49;28.27;;;19.30;;
49860;SDS011;35761;48.826;9.238;2024-01-07T03:06:15;33.78;;;19.40;;
49860;SDS011;35761;48.826;9.238;2024-01-07T03:08:41;31.73;;;18.50;;
49860;SDS011;35761;48.826;9.238;2024-01-07T03:11:07;29.50;;;20.10;;
49860;SDS011;35761;48.826;9.238;2024-01-07T03:13:32;30.95;;;18.60;;
49860;SDS011;35761;48.826;9.238;2024-01-07T03:15:58;34.92;;;19.48;;
49860;SDS011;35761;48.826;9.238;2024-01-07T03:18:24;30.25;;;17.45;;
49860;SDS011;35761;48.826;9.238;2024-01-07T03:20:49;29.70;;;18.20;;
49860;SDS011;35761;48.826;9.238;2024-01-07T03:23:15;28.75;;;18.45;;
49860;SDS011;35761;48.826;9.238;2024-01-07T03:25:40;30.17;;;18.85;;
49860;SDS011;35761;48.826;9.238;2024-01-07T03:28:06;30.00;;;18.83;;
49860;SDS011;35761;48.826;9.238;2024-01-07T03:30:31;28.05;;;17.25;;
49860;SDS011;35761;48.826;9.238;2024-01-07T03:32:57;26.33;;;18.20;;
49860;SDS011;35761;48.826;9.238;2024-01-07T03:35:22;29.80;;;18.27;;
49860;SDS011;35761;48.826;9.238;2024-01-07T03:37:49;30.48;;;17.40;;
49860;SDS011;35761;48.826;9.238;2024-01-07T03:40:15;29.63;;;17.38;;
49860;SDS011;35761;48.826;9.238;2024-01-07T03:42:40;28.05;;;17.15;;
49860;SDS011;35761;48.826;9.238;2024-01-07T03:45:06;26.42;;;16.92;;
49860;SDS011;35761;48.826;9.238;2024-01-07T03:47:31;26.02;;;16.33;;
49860;SDS011;35761;48.826;9.238;2024-01-07T03:49:57;26.33;;;15.60;;
49860;SDS011;35761;48.826;9.238;2024-01-07T03:52:22;26.92;;;15.73;;
49860;SDS011;35761;48.826;9.238;2024-01-07T03:54:48;28.88;;;15.63;;
49860;SDS011;35761;48.826;9.238;2024-01-07T03:57:13;28.08;;;15.82;;
49860;SDS011;35761;48.826;9.238;2024-01-07T03:59:39;24.55;;;15.15;;
49860;SDS011;35761;48.826;9.238;2024-01-07T04:02:04;24.77;;;16.10;;
49860;SDS011;35761;48.826;9.238;2024-01-07T04:04:29;24.70;;;16.30;;
49860;SDS011;35761;48.826;9.238;2024-01-07T04:06:55;26.40;;;15.98;;
49860;SDS011;35761;48.826;9.238;2024-01-07T04:09:21;26.25;;;16.20;;
49860;SDS011;35761;48.826;9.238;2024-01-07T04:11:46;31.25;;;16.17;;
49860;SDS011;35761;48.826;9.238;2024-01-07T04:14:13;26.08;;;16.60;;
49860;SDS011;35761;48.826;9.238;2024-01-07T04:16:40;27.45;;;16.55;;
49860;SDS011;35761;48.826;9.238;2024-01-07T04:19:05;23.00;;;15.82;;
49860;SDS011;35761;48.826;9.238;2024-01-07T04:21:31;28.75;;;16.60;;
49860;SDS011;35761;48.826;9.238;2024-01-07T04:23:56;25.83;;;17.17;;
49860;SDS011;35761;48.826;9.238;2024-01-07T04:26:22;24.85;;;16.83;;
49860;SDS011;35761;48.826;9.238;2024-01-07T04:28:47;24.52;;;16.85;;
49860;SDS011;35761;48.826;9.238;2024-01-07T04:31:13;27.65;;;17.00;;
49860;SDS011;35761;48.826;9.238;2024-01-07T04:33:38;28.00;;;16.67;;
49860;SDS011;35761;48.826;9.238;2024-01-07T04:36:04;32.30;;;19.35;;
49860;SDS011;35761;48.826;9.238;2024-01-07T04:38:30;26.17;;;17.20;;
49860;SDS011;35761;48.826;9.238;2024-01-07T04:40:55;23.80;;;15.90;;
49860;SDS011;35761;48.826;9.238;2024-01-07T04:43:21;29.85;;;17.10;;
49860;SDS011;35761;48.826;9.238;2024-01-07T04:45:46;22.55;;;15.40;;
49860;SDS011;35761;48.826;9.238;2024-01-07T04:48:12;27.67;;;16.05;;
49860;SDS011;35761;48.826;9.238;2024-01-07T04:50:41;28.27;;;16.25;;
49860;SDS011;35761;48.826;9.238;2024-01-07T04:53:09;30.30;;;16.45;;
49860;SDS011;35761;48.826;9.238;2024-01-07T04:55:35;27.30;;;16.00;;
49860;SDS011;35761;48.826;9.238;2024-01-07T04:58:01;22.58;;;14.65;;
49860;SDS011;35761;48.826;9.238;2024-01-07T05:00:27;26.08;;;14.85;;
49860;SDS011;35761;48.826;9.238;2024-01-07T05:02:52;24.80;;;14.35;;
49860;SDS011;35761;48.826;9.238;2024-01-07T05:05:18;23.30;;;14.55;;
49860;SDS011;35761;48.826;9.238;2024-01-07T05:07:43;20.17;;;13.30;;
49860;SDS011;35761;48.826;9.238;2024-01-07T05:10:09;22.23;;;13.02;;
49860;SDS011;35761;48.826;9.238;2024-01-07T05:12:35;22.13;;;13.63;;
49860;SDS011;35761;48.826;9.238;2024-01-07T05:15:00;22.15;;;14.18;;
49860;SDS011;35761;48.826;9.238;2024-01-07T05:17:25;22.50;;;13.77;;
49860;SDS011;35761;48.826;9.238;2024-01-07T05:19:51;20.45;;;13.23;;
49860;SDS011;35761;48.826;9.238;2024-01-07T05:22:16;20.55;;;12.88;;
49860;SDS011;35761;48.826;9.238;2024-01-07T05:24:42;22.75;;;13.48;;
49860;SDS011;35761;48.826;9.238;2024-01-07T05:27:08;20.23;;;12.15;;
49860;SDS011;35761;48.826;9.238;2024-01-07T05:29:34;18.05;;;12.05;;
49860;SDS011;35761;48.826;9.238;2024-01-07T05:31:59;19.30;;;12.63;;
49860;SDS011;35761;48.826;9.238;2024-01-07T05:34:28;19.67;;;12.10;;
49860;SDS011;35761;48.826;9.238;2024-01-07T05:36:54;18.55;;;11.15;;
49860;SDS011;35761;48.826;9.238;2024-01-07T05:39:19;19.55;;;11.45;;
49860;SDS011;35761;48.826;9.238;2024-01-07T05:41:45;20.33;;;12.27;;
49860;SDS011;35761;48.826;9.238;2024-01-07T05:44:11;19.42;;;11.90;;
49860;SDS011;35761;48.826;9.238;2024-01-07T05:46:39;22.08;;;12.30;;
49860;SDS011;35761;48.826;9.238;2024-01-07T05:49:05;20.45;;;12.35;;
49860;SDS011;35761;48.826;9.238;2024-01-07T05:51:31;21.80;;;13.10;;
49860;SDS011;35761;48.826;9.238;2024-01-07T05:53:56;19.50;;;12.65;;
49860;SDS011;35761;48.826;9.238;2024-01-07T05:56:22;23.05;;;13.95;;
49860;SDS011;35761;48.826;9.238;2024-01-07T05:58:47;18.83;;;12.38;;
49860;SDS011;35761;48.826;9.238;2024-01-07T06:01:17;20.60;;;12.73;;
49860;SDS011;35761;48.826;9.238;2024-01-07T06:03:46;18.38;;;11.27;;
49860;SDS011;35761;48.826;9.238;2024-01-07T06:06:15;20.23;;;11.50;;
49860;SDS011;35761;48.826;9.238;2024-01-07T06:08:41;21.42;;;11.82;;
49860;SDS011;35761;48.826;9.238;2024-01-07T06:11:07;16.65;;;11.07;;
49860;SDS011;35761;48.826;9.238;2024-01-07T06:13:32;15.90;;;11.40;;
49860;SDS011;35761;48.826;9.238;2024-01-07T06:15:58;16.55;;;10.45;;
49860;SDS011;35761;48.826;9.238;2024-01-07T06:18:23;18.13;;;10.60;;
49860;SDS011;35761;48.826;9.238;2024-01-07T06:20:48;18.73;;;11.68;;
49860;SDS011;35761;48.826;9.238;2024-01-07T06:23:14;18.25;;;11.55;;
49860;SDS011;35761;48.826;9.238;2024-01-07T06:25:39;15.27;;;10.68;;
49860;SDS011;35761;48.826;9.238;2024-01-07T06:28:05;18.55;;;11.45;;
49860;SDS011;35761;48.826;9.238;2024-01-07T06:30:31;19.92;;;11.80;;
49860;SDS011;35761;48.826;9.238;2024-01-07T06:32:56;20.20;;;11.65;;
49860;SDS011;35761;48.826;9.238;2024-01-07T06:35:21;15.57;;;10.98;;
49860;SDS011;35761;48.826;9.238;2024-01-07T06:37:47;21.63;;;11.93;;
49860;SDS011;35761;48.826;9.238;2024-01-07T06:40:12;19.75;;;11.57;;
49860;SDS011;35761;48.826;9.238;2024-01-07T06:42:38;21.63;;;10.90;;
49860;SDS011;35761;48.826;9.238;2024-01-07T06:45:04;19.35;;;11.18;;
49860;SDS011;35761;48.826;9.238;2024-01-07T06:47:29;16.02;;;10.88;;
49860;SDS011;35761;48.826;9.238;2024-01-07T06:49:55;16.63;;;11.27;;
49860;SDS011;35761;48.826;9.238;2024-01-07T06:52:20;16.95;;;10.95;;
49860;SDS011;35761;48.826;9.238;2024-01-07T06:54:46;14.38;;;9.57;;
49860;SDS011;35761;48.826;9.238;2024-01-07T06:57:11;18.10;;;10.13;;
49860;SDS011;35761;48.826;9.238;2024-01-07T06:59:37;14.20;;;9.88;;
49860;SDS011;35761;48.826;9.238;2024-01-07T07:02:02;15.63;;;9.80;;
49860;SDS011;35761;48.826;9.238;2024-01-07T07:04:28;13.63;;;9.73;;
49860;SDS011;35761;48.826;9.238;2024-01-07T07:06:53;13.70;;;8.70;;
49860;SDS011;35761;48.826;9.238;2024-01-07T07:09:19;14.10;;;9.07;;
49860;SDS011;35761;48.826;9.238;2024-01-07T07:11:44;13.88;;;8.27;;
49860;SDS011;35761;48.826;9.238;2024-01-07T07:14:10;14.30;;;8.48;;
49860;SDS011;35761;48.826;9.238;2024-01-07T07:16:35;13.70;;;8.82;;
49860;SDS011;35761;48.826;9.238;2024-01-07T07:19:01;14.20;;;8.48;;
49860;SDS011;35761;48.826;9.238;2024-01-07T07:21:27;13.15;;;8.32;;
49860;SDS011;35761;48.826;9.238;2024-01-07T07:23:52;13.02;;;8.35;;
49860;SDS011;35761;48.826;9.238;2024-01-07T07:26:18;12.20;;;8.57;;
49860;SDS011;35761;48.826;9.238;2024-01-07T07:28:43;13.98;;;8.00;;
49860;SDS011;35761;48.826;9.238;2024-01-07T07:31:10;11.05;;;7.78;;
49860;SDS011;35761;48.826;9.238;2024-01-07T07:33:38;12.45;;;7.88;;
49860;SDS011;35761;48.826;9.238;2024-01-07T07:36:04;10.93;;;7.50;;
49860;SDS011;35761;48.826;9.238;2024-01-07T07:38:29;12.73;;;7.53;;
49860;SDS011;35761;48.826;9.238;2024-01-07T07:40:55;13.98;;;7.25;;
49860;SDS011;35761;48.826;9.238;2024-01-07T07:43:20;12.35;;;7.25;;
49860;SDS011;35761;48.826;9.238;2024-01-07T07:45:46;12.63;;;7.57;;
49860;SDS011;35761;48.826;9.238;2024-01-07T07:48:12;12.45;;;7.65;;
49860;SDS011;35761;48.826;9.238;2024-01-07T07:50:37;10.63;;;7.63;;
49860;SDS011;35761;48.826;9.238;2024-01-07T07:53:03;11.70;;;6.68;;
49860;SDS011;35761;48.826;9.238;2024-01-07T07:55:28;11.57;;;6.85;;
49860;SDS011;35761;48.826;9.238;2024-01-07T07:57:54;10.68;;;7.22;;
49860;SDS011;35761;48.826;9.238;2024-01-07T08:00:19;11.95;;;7.28;;
49860;SDS011;35761;48.826;9.238;2024-01-07T08:02:45;10.05;;;6.93;;
49860;SDS011;35761;48.826;9.238;2024-01-07T08:05:10;9.65;;;6.18;;
49860;SDS011;35761;48.826;9.238;2024-01-07T08:07:36;13.25;;;7.00;;
49860;SDS011;35761;48.826;9.238;2024-01-07T08:10:01;10.57;;;6.38;;
49860;SDS011;35761;48.826;9.238;2024-01-07T08:12:28;12.68;;;6.68;;
49860;SDS011;35761;48.826;9.238;2024-01-07T08:14:53;11.57;;;6.25;;
49860;SDS011;35761;48.826;9.238;2024-01-07T08:17:18;10.60;;;6.32;;
49860;SDS011;35761;48.826;9.238;2024-01-07T08:19:44;12.05;;;6.75;;
49860;SDS011;35761;48.826;9.238;2024-01-07T08:22:09;9.38;;;5.93;;
49860;SDS011;35761;48.826;9.238;2024-01-07T08:24:35;11.93;;;6.53;;
49860;SDS011;35761;48.826;9.238;2024-01-07T08:27:01;10.05;;;6.13;;
49860;SDS011;35761;48.826;9.238;2024-01-07T08:29:28;10.70;;;6.20;;
49860;SDS011;35761;48.826;9.238;2024-01-07T08:31:53;11.13;;;6.50;;
49860;SDS011;35761;48.826;9.238;2024-01-07T08:34:19;11.65;;;7.22;;
49860;SDS011;35761;48.826;9.238;2024-01-07T08:36:44;9.73;;;6.72;;
49860;SDS011;35761;48.826;9.238;2024-01-07T08:39:10;11.05;;;6.38;;
49860;SDS011;35761;48.826;9.238;2024-01-07T08:41:36;12.65;;;6.97;;
49860;SDS011;35761;48.826;9.238;2024-01-07T08:44:01;11.15;;;6.63;;
49860;SDS011;35761;48.826;9.238;2024-01-07T08:46:27;11.32;;;7.20;;
49860;SDS011;35761;48.826;9.238;2024-01-07T08:48:52;12.07;;;6.68;;
49860;SDS011;35761;48.826;9.238;2024-01-07T08:51:18;13.10;;;7.20;;
49860;SDS011;35761;48.826;9.238;2024-01-07T08:53:43;12.57;;;6.55;;
49860;SDS011;35761;48.826;9.238;2024-01-07T08:56:09;13.02;;;6.35;;
49860;SDS011;35761;48.826;9.238;2024-01-07T08:58:34;9.10;;;5.90;;
49860;SDS011;35761;48.826;9.238;2024-01-07T09:01:00;10.15;;;6.10;;
49860;SDS011;35761;48.826;9.238;2024-01-07T09:03:25;8.90;;;5.45;;
49860;SDS011;35761;48.826;9.238;2024-01-07T09:05:51;9.80;;;5.80;;
49860;SDS011;35761;48.826;9.238;2024-01-07T09:08:16;7.25;;;4.60;;
49860;SDS011;35761;48.826;9.238;2024-01-07T09:10:42;9.15;;;5.32;;
49860;SDS011;35761;48.826;9.238;2024-01-07T09:13:07;7.43;;;4.60;;
49860;SDS011;35761;48.826;9.238;2024-01-07T09:15:33;6.97;;;3.95;;
49860;SDS011;35761;48.826;9.238;2024-01-07T09:17:58;7.03;;;4.10;;
49860;SDS011;35761;48.826;9.238;2024-01-07T09:20:24;6.47;;;3.80;;
49860;SDS011;35761;48.826;9.238;2024-01-07T09:22:49;7.50;;;4.35;;
49860;SDS011;35761;48.826;9.238;2024-01-07T09:25:14;10.63;;;5.03;;
49860;SDS011;35761;48.826;9.238;2024-01-07T09:27:41;13.05;;;6.40;;
49860;SDS011;35761;48.826;9.238;2024-01-07T09:30:08;7.53;;;4.25;;
49860;SDS011;35761;48.826;9.238;2024-01-07T09:32:35;6.95;;;4.32;;
49860;SDS011;35761;48.826;9.238;2024-01-07T09:35:01;7.63;;;4.25;;
49860;SDS011;35761;48.826;9.238;2024-01-07T09:37:26;8.05;;;4.43;;
49860;SDS011;35761;48.826;9.238;2024-01-07T09:39:52;7.45;;;4.18;;
49860;SDS011;35761;48.826;9.238;2024-01-07T09:42:18;5.95;;;3.78;;
49860;SDS011;35761;48.826;9.238;2024-01-07T09:44:44;8.10;;;4.60;;
49860;SDS011;35761;48.826;9.238;2024-01-07T09:47:11;7.82;;;4.45;;
49860;SDS011;35761;48.826;9.238;2024-01-07T09:49:39;7.25;;;4.20;;
49860;SDS011;35761;48.826;9.238;2024-01-07T09:52:06;7.72;;;4.45;;
49860;SDS011;35761;48.826;9.238;2024-01-07T09:54:33;5.70;;;3.92;;
49860;SDS011;35761;48.826;9.238;2024-01-07T09:57:02;6.57;;;3.85;;
49860;SDS011;35761;48.826;9.238;2024-01-07T09:59:28;7.07;;;4.78;;
49860;SDS011;35761;48.826;9.238;2024-01-07T10:01:55;8.98;;;4.85;;
49860;SDS011;35761;48.826;9.238;2024-01-07T10:04:21;9.75;;;4.55;;
49860;SDS011;35761;48.826;9.238;2024-01-07T10:06:46;7.32;;;4.28;;
49860;SDS011;35761;48.826;9.238;2024-01-07T10:09:14;6.18;;;4.28;;
49860;SDS011;35761;48.826;9.238;2024-01-07T10:11:40;7.88;;;4.90;;
49860;SDS011;35761;48.826;9.238;2024-01-07T10:14:06;7.30;;;4.38;;
49860;SDS011;35761;48.826;9.238;2024-01-07T10:16:31;10.55;;;5.15;;
49860;SDS011;35761;48.826;9.238;2024-01-07T10:18:58;7.03;;;4.43;;
49860;SDS011;35761;48.826;9.238;2024-01-07T10:21:23;8.88;;;5.55;;
49860;SDS011;35761;48.826;9.238;2024-01-07T10:23:49;8.48;;;5.78;;
49860;SDS011;35761;48.826;9.238;2024-01-07T10:26:15;7.63;;;5.03;;
49860;SDS011;35761;48.826;9.238;2024-01-07T10:28:41;7.53;;;4.97;;
49860;SDS011;35761;48.826;9.238;2024-01-07T10:31:08;7.18;;;4.95;;
49860;SDS011;35761;48.826;9.238;2024-01-07T10:33:34;14.35;;;5.55;;
49860;SDS011;35761;48.826;9.238;2024-01-07T10:36:05;9.45;;;5.95;;
49860;SDS011;35761;48.826;9.238;2024-01-07T10:38:31;9.75;;;6.22;;
49860;SDS011;35761;48.826;9.238;2024-01-07T10:40:59;10.48;;;6.20;;
49860;SDS011;35761;48.826;9.238;2024-01-07T10:43:26;16.27;;;10.05;;
49860;SDS011;35761;48.826;9.238;2024-01-07T10:45:52;9.77;;;5.90;;
49860;SDS011;35761;48.826;9.238;2024-01-07T10:48:19;11.68;;;6.25;;
49860;SDS011;35761;48.826;9.238;2024-01-07T10:50:45;22.58;;;18.90;;
49860;SDS011;35761;48.826;9.238;2024-01-07T10:53:13;9.82;;;6.10;;
49860;SDS011;35761;48.826;9.238;2024-01-07T10:55:41;8.18;;;5.40;;
49860;SDS011;35761;48.826;9.238;2024-01-07T10:58:11;8.40;;;5.25;;
49860;SDS011;35761;48.826;9.238;2024-01-07T11:00:37;9.07;;;5.97;;
49860;SDS011;35761;48.826;9.238;2024-01-07T11:03:10;8.32;;;5.30;;
49860;SDS011;35761;48.826;9.238;2024-01-07T11:05:40;16.30;;;6.18;;
49860;SDS011;35761;48.826;9.238;2024-01-07T11:10:50;7.72;;;5.40;;
49860;SDS011;35761;48.826;9.238;2024-01-07T11:13:38;7.60;;;5.40;;
49860;SDS011;35761;48.826;9.238;2024-01-07T11:16:05;8.80;;;5.68;;
49860;SDS011;35761;48.826;9.238;2024-01-07T11:18:37;7.30;;;5.20;;
49860;SDS011;35761;48.826;9.238;2024-01-07T11:21:21;7.32;;;4.72;;
49860;SDS011;35761;48.826;9.238;2024-01-07T11:23:46;6.00;;;4.05;;
49860;SDS011;35761;48.826;9.238;2024-01-07T11:26:12;6.55;;;4.32;;
49860;SDS011;35761;48.826;9.238;2024-01-07T11:31:16;7.25;;;4.45;;
49860;SDS011;35761;48.826;9.238;2024-01-07T11:33:46;27.67;;;21.33;;
49860;SDS011;35761;48.826;9.238;2024-01-07T11:36:15;22.83;;;9.20;;
49860;SDS011;35761;48.826;9.238;2024-01-07T11:38:44;8.68;;;5.78;;
49860;SDS011;35761;48.826;9.238;2024-01-07T11:41:12;7.32;;;4.90;;
49860;SDS011;35761;48.826;9.238;2024-01-07T11:43:38;7.55;;;5.10;;
49860;SDS011;35761;48.826;9.238;2024-01-07T11:46:04;12.07;;;4.80;;
49860;SDS011;35761;48.826;9.238;2024-01-07T11:48:30;10.73;;;7.13;;
49860;SDS011;35761;48.826;9.238;2024-01-07T11:50:55;7.65;;;5.32;;
49860;SDS011;35761;48.826;9.238;2024-01-07T11:53:21;8.02;;;5.25;;
49860;SDS011;35761;48.826;9.238;2024-01-07T11:55:46;10.23;;;5.72;;
49860;SDS011;35761;48.826;9.238;2024-01-07T11:58:12;7.63;;;5.18;;
49860;SDS011;35761;48.826;9.238;2024-01-07T12:00:37;9.18;;;5.93;;
49860;SDS011;35761;48.826;9.238;2024-01-07T12:03:03;9.82;;;5.72;;
49860;SDS011;35761;48.826;9.238;2024-01-07T12:05:29;8.98;;;6.07;;
49860;SDS011;35761;48.826;9.238;2024-01-07T12:07:55;24.52;;;10.38;;
49860;SDS011;35761;48.826;9.238;2024-01-07T12:10:22;11.60;;;7.72;;
49860;SDS011;35761;48.826;9.238;2024-01-07T12:12:48;10.13;;;5.80;;
49860;SDS011;35761;48.826;9.238;2024-01-07T12:15:14;9.10;;;6.22;;
49860;SDS011;35761;48.826;9.238;2024-01-07T12:17:40;10.10;;;6.15;;
49860;SDS011;35761;48.826;9.238;2024-01-07T12:20:07;11.00;;;7.22;;
49860;SDS011;35761;48.826;9.238;2024-01-07T12:22:37;92.63;;;23.27;;
49860;SDS011;35761;48.826;9.238;2024-01-07T12:25:05;363.00;;;89.95;;
49860;SDS011;35761;48.826;9.238;2024-01-07T12:27:31;83.65;;;26.27;;
49860;SDS011;35761;48.826;9.238;2024-01-07T12:29:57;42.50;;;15.20;;
49860;SDS011;35761;48.826;9.238;2024-01-07T12:32:26;35.15;;;14.75;;
49860;SDS011;35761;48.826;9.238;2024-01-07T12:34:52;26.17;;;10.40;;
49860;SDS011;35761;48.826;9.238;2024-01-07T12:37:18;24.63;;;15.63;;
49860;SDS011;35761;48.826;9.238;2024-01-07T12:39:43;15.18;;;7.65;;
49860;SDS011;35761;48.826;9.238;2024-01-07T12:42:09;11.55;;;7.15;;
49860;SDS011;35761;48.826;9.238;2024-01-07T12:44:35;9.75;;;6.55;;
49860;SDS011;35761;48.826;9.238;2024-01-07T12:47:01;13.95;;;7.95;;
49860;SDS011;35761;48.826;9.238;2024-01-07T12:49:28;14.70;;;9.00;;
49860;SDS011;35761;48.826;9.238;2024-01-07T12:51:54;15.38;;;8.13;;
49860;SDS011;35761;48.826;9.238;2024-01-07T12:54:19;28.88;;;13.05;;
49860;SDS011;35761;48.826;9.238;2024-01-07T12:56:45;10.80;;;6.80;;
49860;SDS011;35761;48.826;9.238;2024-01-07T12:59:10;11.90;;;7.20;;
49860;SDS011;35761;48.826;9.238;2024-01-07T13:01:36;10.60;;;7.03;;
49860;SDS011;35761;48.826;9.238;2024-01-07T13:04:02;10.00;;;6.45;;
49860;SDS011;35761;48.826;9.238;2024-01-07T13:06:27;12.73;;;6.85;;
49860;SDS011;35761;48.826;9.238;2024-01-07T13:08:53;10.77;;;7.13;;
49860;SDS011;35761;48.826;9.238;2024-01-07T13:11:19;12.80;;;7.95;;
49860;SDS011;35761;48.826;9.238;2024-01-07T13:13:45;12.15;;;6.97;;
49860;SDS011;35761;48.826;9.238;2024-01-07T13:16:11;9.60;;;6.72;;
49860;SDS011;35761;48.826;9.238;2024-01-07T13:18:37;12.50;;;7.90;;
49860;SDS011;35761;48.826;9.238;2024-01-07T13:21:02;11.23;;;7.40;;
49860;SDS011;35761;48.826;9.238;2024-01-07T13:23:28;14.35;;;8.23;;
49860;SDS011;35761;48.826;9.238;2024-01-07T13:25:54;11.25;;;6.88;;
49860;SDS011;35761;48.826;9.238;2024-01-07T13:28:21;10.13;;;6.80;;
49860;SDS011;35761;48.826;9.238;2024-01-07T13:30:47;13.82;;;8.75;;
49860;SDS011;35761;48.826;9.238;2024-01-07T13:33:12;11.75;;;7.80;;
49860;SDS011;35761;48.826;9.238;2024-01-07T13:35:38;12.48;;;7.40;;
49860;SDS011;35761;48.826;9.238;2024-01-07T13:38:03;11.55;;;7.30;;
49860;SDS011;35761;48.826;9.238;2024-01-07T13:40:28;11.15;;;7.28;;
49860;SDS011;35761;48.826;9.238;2024-01-07T13:42:54;12.45;;;7.82;;
49860;SDS011;35761;48.826;9.238;2024-01-07T13:47:46;10.15;;;6.75;;
49860;SDS011;35761;48.826;9.238;2024-01-07T13:50:12;12.48;;;7.45;;
49860;SDS011;35761;48.826;9.238;2024-01-07T13:52:37;10.93;;;7.22;;
49860;SDS011;35761;48.826;9.238;2024-01-07T13:55:03;11.52;;;7.90;;
49860;SDS011;35761;48.826;9.238;2024-01-07T13:57:29;11.90;;;7.82;;
49860;SDS011;35761;48.826;9.238;2024-01-07T13:59:56;12.93;;;7.75;;
49860;SDS011;35761;48.826;9.238;2024-01-07T14:02:21;12.48;;;7.45;;
49860;SDS011;35761;48.826;9.238;2024-01-07T14:04:47;13.25;;;8.10;;
49860;SDS011;35761;48.826;9.238;2024-01-07T14:07:13;14.48;;;9.48;;
49860;SDS011;35761;48.826;9.238;2024-01-07T14:09:39;18.80;;;8.27;;
49860;SDS011;35761;48.826;9.238;2024-01-07T14:12:05;13.25;;;8.13;;
49860;SDS011;35761;48.826;9.238;2024-01-07T14:14:30;14.07;;;8.38;;
49860;SDS011;35761;48.826;9.238;2024-01-07T14:16:56;13.82;;;8.23;;
49860;SDS011;35761;48.826;9.238;2024-01-07T14:19:21;14.07;;;8.48;;
49860;SDS011;35761;48.826;9.238;2024-01-07T14:21:47;13.70;;;8.40;;
49860;SDS011;35761;48.826;9.238;2024-01-07T14:24:13;13.50;;;8.48;;
49860;SDS011;35761;48.826;9.238;2024-01-07T14:26:38;13.85;;;8.68;;
49860;SDS011;35761;48.826;9.238;2024-01-07T14:29:04;15.68;;;9.27;;
49860;SDS011;35761;48.826;9.238;2024-01-07T14:31:30;18.95;;;9.60;;